Panama City, Florida
Current Conditions -  °F | °C
As of 7:58 AM on Saturday 20 Dec 2014 (Local Time) from KPAM Reporting Station
Overcast Overcast  
Wind Chill: 51°   Ceiling: 5000
Heat Index: 51°   Visibility: 10mi
Dew Point: 47°   Wind: 12mph
Humidity: 87%   Direction: 30°NNE
Pressure: 30.13"   Gusts: 17mph
Location:  30.16°N, 85.66°W
Report Text: KPAM 201358Z AUTO 03010G15KT 10SM BKN050 OVC080 11/09 A3013 RMK AO2 SLPNO T01060086 $
Loading
Personal Weather Stations






























Interactive Weather Map New forecast layout! Learn more

10-Day Weather Forecast

Advertisements
Track Severe Weather on mobile